Penn Valley, CA (95946)

1:37 PM PST on February 06, 2016 (GMT -0800)
Lake Wildwood | | Change Station
CLOSE
Current Station
Personal Weather Station
Location: Penn Valley, CA
Elevation: 1532 ft
Nearby Weather Stations

Elev 1532 ft 39.23 °N, 121.20 °W | Updated 10 minutes ago

Partly Cloudy
Partly Cloudy
61.7 °F
Feels Like 61.7 °F
N
1.1
Wind Variable Wind from West

Today
High -- | Low -- °F
--% Chance of Precip.
Yesterday
High -- | Low -- °F
Precip. -- in
Pressure 30.44 in
Visibility 10.0 miles
Clouds Clear
Dew Point 41 °F
Humidity 47%
Rainfall 0.00 in
Snow Depth Not available.
7:07 AM 5:31 PM
Waning Crescent, 4% visible
METAR KGOO 062010Z AUTO 29004KT 10SM CLR 15/M05 A3044 RMK AO1
Pressure 30.44 in
Visibility 10.0 miles
Clouds Clear
Dew Point 41 °F
Humidity 47%
Rainfall 0.00 in
Snow Depth Not available.
7:07 AM 5:31 PM
Waning Crescent, 4% visible
METAR KGOO 062010Z AUTO 29004KT 10SM CLR 15/M05 A3044 RMK AO1

10-Day Weather Forecast

Almanac

Astronomy

Feb. 06, 2016 Rise Set
Actual Time
Civil Twilight
Nautical Twilight
Astronomical Twilight
Moon
Length of Visible Light
Length of Day
Tomorrow will be .
, % of the Moon is Illuminated

Today's Extremes

State Highs State Lows

Community

WunderPhotos

Upload Photos

1,891,052 photos uploaded!

WunderBlog® & News

Nearby

Air Quality

  Air Quality AQ Index Pollutant
Not available.

Snow Depth

Station Depth Elevation

Earthquake Activity

City Distance Mag. Time & Date
Minimum magnitude displayed is 2.5.

Coastal Water Temperatures

Place Temperature

Stations

Nearby Weather Stations

Station Location Temp. Windchill Dew Point Humidity Wind Precip. Elev Updated Type
                   

Watches & Warnings

There are currently no watches in effect.